הכול
Scott Muni Airport (Oneida, TN) SCX מזג אוויר
|
Oneida, TN (KSCX)
שמים בהירים
רוחות שקטות |
|
23 °C |
There is no TAF data available at SCX or any nearby airports.
Recent SCX METAR history
| Date | Time (EDT) | Flight Rules | Wind Dir. | Speed | Type | Height AGL (ft) | Visibility | Temp (°C) | Temp (°F) | Dew Point (°C) | Dew Point (°F) | Rel. Humid. | Pressure | Density Altitude | Remarks |
|---|---|---|---|---|---|---|---|---|---|---|---|---|---|---|---|
| 06-ספט | 02:15 | VFR | Calm | 10 miles | 23° | 73° | 23° | 73° | 100% | 29.94 in Hg | 2,722 ft | ||||
| 06-ספט | 01:55 | VFR | Calm | 10 miles | 23° | 73° | 23° | 73° | 100% | 29.95 in Hg | 2,712 ft | ||||
| 06-ספט | 01:35 | VFR | Calm | 10 miles | 23° | 73° | 23° | 73° | 100% | 29.95 in Hg | 2,712 ft | ||||
| 06-ספט | 01:15 | VFR | 280° | 3 kt | 10 miles | 23° | 73° | 23° | 73° | 100% | 29.96 in Hg | 2,702 ft | |||
| 06-ספט | 00:55 | VFR | Calm | 10 miles | 23° | 73° | 23° | 73° | 100% | 29.96 in Hg | 2,702 ft | ||||
| 06-ספט | 00:15 | VFR | Calm | 10 miles | 23° | 73° | 22° | 71° | 94% | 29.96 in Hg | 2,702 ft | ||||
| 05-ספט | 23:55 | VFR | Calm | 10 miles | 23° | 73° | 22° | 71° | 94% | 29.96 in Hg | 2,702 ft | ||||
| 05-ספט | 23:35 | VFR | Calm | 10 miles | 23° | 73° | 22° | 71° | 94% | 29.96 in Hg | 2,702 ft | ||||
| 05-ספט | 23:15 | VFR | Calm | 10 miles | 23° | 73° | 22° | 71° | 94% | 29.95 in Hg | 2,712 ft | ||||
| 05-ספט | 22:55 | VFR | Calm | 10 miles | 24° | 75° | 22° | 71° | 89% | 29.95 in Hg | 2,832 ft | ||||
| 05-ספט | 22:35 | VFR | Calm | 10 miles | 24° | 75° | 22° | 71° | 89% | 29.95 in Hg | 2,832 ft | ||||
| 05-ספט | 22:15 | VFR | Calm | 10 miles | 24° | 75° | 21° | 69° | 83% | 29.94 in Hg | 2,842 ft | ||||
| 05-ספט | 21:55 | VFR | Calm | 10 miles | 24° | 75° | 21° | 69° | 83% | 29.93 in Hg | 2,852 ft | ||||
| 05-ספט | 21:35 | VFR | Calm | 10 miles | 26° | 78° | 21° | 69° | 74% | 29.94 in Hg | 3,082 ft | ||||
| 05-ספט | 21:15 | VFR | Calm | 10 miles | 26° | 78° | 21° | 69° | 74% | 29.93 in Hg | 3,092 ft | ||||
| 05-ספט | 20:55 | VFR | Calm | 10 miles | 27° | 80° | 21° | 69° | 70% | 29.93 in Hg | 3,212 ft | ||||
| 05-ספט | 20:15 | VFR | 310° | 5 kt | 10 miles | 29° | 84° | 22° | 71° | 66% | 29.93 in Hg | 3,452 ft | |||
| 05-ספט | 19:55 | VFR | Calm | 10 miles | 30° | 86° | 21° | 69° | 59% | 29.93 in Hg | 3,572 ft | ||||
| 05-ספט | 19:15 | VFR | 330° | 4 kt | 10 miles | 32° | 89° | 21° | 69° | 52% | 29.93 in Hg | 3,812 ft | |||
| 05-ספט | 18:55 | VFR | 350° | 5 kt | 10 miles | 32° | 89° | 21° | 69° | 52% | 29.93 in Hg | 3,812 ft | |||
| 05-ספט | 18:15 | VFR | Variable | 5 kt | 10 miles | 32° | 89° | 21° | 69° | 52% | 29.92 in Hg | 3,822 ft | |||
| 05-ספט | 17:55 | VFR | 360° | 6 kt | 10 miles | 33° | 91° | 21° | 69° | 49% | 29.92 in Hg | 3,942 ft | |||
| 05-ספט | 17:15 | VFR | 350° | 9 kt | 10 miles | 33° | 91° | 20° | 68° | 46% | 29.93 in Hg | 3,932 ft | |||
| 05-ספט | 16:55 | VFR | 330° | 9 kt | 10 miles | 33° | 91° | 21° | 69° | 49% | 29.94 in Hg | 3,922 ft |
כניסה לאתר
| אין תמיכה בדפדפן שלך. שדרג את הדפדפן שלך |
